sensor_id;sensor_type;location;lat;lon;timestamp;P1;durP1;ratioP1;P2;durP2;ratioP2
2896;SDS011;1458;49.728;9.228;2024-03-02T00:00:52;0.40;;;0.40;;
2896;SDS011;1458;49.728;9.228;2024-03-02T00:03:20;0.50;;;0.50;;
2896;SDS011;1458;49.728;9.228;2024-03-02T00:05:48;0.40;;;0.40;;
2896;SDS011;1458;49.728;9.228;2024-03-02T00:08:20;0.40;;;0.40;;
2896;SDS011;1458;49.728;9.228;2024-03-02T00:10:51;0.60;;;0.60;;
2896;SDS011;1458;49.728;9.228;2024-03-02T00:13:24;0.50;;;0.50;;
2896;SDS011;1458;49.728;9.228;2024-03-02T00:15:54;0.40;;;0.40;;
2896;SDS011;1458;49.728;9.228;2024-03-02T00:18:24;0.50;;;0.50;;
2896;SDS011;1458;49.728;9.228;2024-03-02T00:20:54;0.43;;;0.43;;
2896;SDS011;1458;49.728;9.228;2024-03-02T00:23:22;0.50;;;0.50;;
2896;SDS011;1458;49.728;9.228;2024-03-02T00:25:51;0.50;;;0.50;;
2896;SDS011;1458;49.728;9.228;2024-03-02T00:28:20;0.60;;;0.60;;
2896;SDS011;1458;49.728;9.228;2024-03-02T00:31:01;0.50;;;0.50;;
2896;SDS011;1458;49.728;9.228;2024-03-02T00:33:31;0.50;;;0.50;;
2896;SDS011;1458;49.728;9.228;2024-03-02T00:36:01;0.50;;;0.50;;
2896;SDS011;1458;49.728;9.228;2024-03-02T00:38:30;0.50;;;0.50;;
2896;SDS011;1458;49.728;9.228;2024-03-02T00:40:58;0.50;;;0.50;;
2896;SDS011;1458;49.728;9.228;2024-03-02T00:46:15;0.50;;;0.50;;
2896;SDS011;1458;49.728;9.228;2024-03-02T00:51:30;0.50;;;0.50;;
2896;SDS011;1458;49.728;9.228;2024-03-02T00:53:59;0.50;;;0.50;;
2896;SDS011;1458;49.728;9.228;2024-03-02T00:56:29;0.50;;;0.50;;
2896;SDS011;1458;49.728;9.228;2024-03-02T00:58:57;0.43;;;0.43;;
2896;SDS011;1458;49.728;9.228;2024-03-02T01:01:26;0.50;;;0.50;;
2896;SDS011;1458;49.728;9.228;2024-03-02T01:03:53;0.50;;;0.50;;
2896;SDS011;1458;49.728;9.228;2024-03-02T01:06:21;0.60;;;0.60;;
2896;SDS011;1458;49.728;9.228;2024-03-02T01:08:48;0.40;;;0.40;;
2896;SDS011;1458;49.728;9.228;2024-03-02T01:11:16;0.50;;;0.50;;
2896;SDS011;1458;49.728;9.228;2024-03-02T01:13:44;0.50;;;0.50;;
2896;SDS011;1458;49.728;9.228;2024-03-02T01:16:12;0.40;;;0.40;;
2896;SDS011;1458;49.728;9.228;2024-03-02T01:18:42;0.60;;;0.60;;
2896;SDS011;1458;49.728;9.228;2024-03-02T01:21:10;0.50;;;0.50;;
2896;SDS011;1458;49.728;9.228;2024-03-02T01:23:37;0.50;;;0.50;;
2896;SDS011;1458;49.728;9.228;2024-03-02T01:26:04;0.50;;;0.50;;
2896;SDS011;1458;49.728;9.228;2024-03-02T01:28:32;0.50;;;0.50;;
2896;SDS011;1458;49.728;9.228;2024-03-02T01:30:59;0.50;;;0.50;;
2896;SDS011;1458;49.728;9.228;2024-03-02T01:33:27;0.50;;;0.50;;
2896;SDS011;1458;49.728;9.228;2024-03-02T01:35:56;0.50;;;0.50;;
2896;SDS011;1458;49.728;9.228;2024-03-02T01:38:23;0.60;;;0.60;;
2896;SDS011;1458;49.728;9.228;2024-03-02T01:40:51;0.50;;;0.50;;
2896;SDS011;1458;49.728;9.228;2024-03-02T01:43:18;0.40;;;0.40;;
2896;SDS011;1458;49.728;9.228;2024-03-02T01:45:46;0.50;;;0.50;;
2896;SDS011;1458;49.728;9.228;2024-03-02T01:48:13;0.50;;;0.50;;
2896;SDS011;1458;49.728;9.228;2024-03-02T01:50:41;0.67;;;0.67;;
2896;SDS011;1458;49.728;9.228;2024-03-02T01:53:10;0.50;;;0.50;;
2896;SDS011;1458;49.728;9.228;2024-03-02T01:55:37;0.50;;;0.50;;
2896;SDS011;1458;49.728;9.228;2024-03-02T01:58:05;0.50;;;0.50;;
2896;SDS011;1458;49.728;9.228;2024-03-02T02:00:32;0.50;;;0.50;;
2896;SDS011;1458;49.728;9.228;2024-03-02T02:03:00;0.50;;;0.50;;
2896;SDS011;1458;49.728;9.228;2024-03-02T02:05:27;0.63;;;0.63;;
2896;SDS011;1458;49.728;9.228;2024-03-02T02:07:54;0.50;;;0.50;;
2896;SDS011;1458;49.728;9.228;2024-03-02T02:10:25;0.50;;;0.50;;
2896;SDS011;1458;49.728;9.228;2024-03-02T02:12:52;0.50;;;0.50;;
2896;SDS011;1458;49.728;9.228;2024-03-02T02:15:23;0.50;;;0.50;;
2896;SDS011;1458;49.728;9.228;2024-03-02T02:17:52;0.50;;;0.50;;
2896;SDS011;1458;49.728;9.228;2024-03-02T02:20:19;0.50;;;0.50;;
2896;SDS011;1458;49.728;9.228;2024-03-02T02:22:58;0.60;;;0.60;;
2896;SDS011;1458;49.728;9.228;2024-03-02T02:25:26;0.67;;;0.67;;
2896;SDS011;1458;49.728;9.228;2024-03-02T02:27:55;0.50;;;0.50;;
2896;SDS011;1458;49.728;9.228;2024-03-02T02:30:24;0.50;;;0.50;;
2896;SDS011;1458;49.728;9.228;2024-03-02T02:32:54;0.53;;;0.53;;
2896;SDS011;1458;49.728;9.228;2024-03-02T02:35:22;0.50;;;0.50;;
2896;SDS011;1458;49.728;9.228;2024-03-02T02:37:50;0.50;;;0.50;;
2896;SDS011;1458;49.728;9.228;2024-03-02T02:40:20;0.50;;;0.50;;
2896;SDS011;1458;49.728;9.228;2024-03-02T02:42:48;0.40;;;0.40;;
2896;SDS011;1458;49.728;9.228;2024-03-02T02:45:17;0.50;;;0.50;;
2896;SDS011;1458;49.728;9.228;2024-03-02T02:47:44;0.60;;;0.60;;
2896;SDS011;1458;49.728;9.228;2024-03-02T02:50:12;0.53;;;0.53;;
2896;SDS011;1458;49.728;9.228;2024-03-02T02:52:40;0.50;;;0.50;;
2896;SDS011;1458;49.728;9.228;2024-03-02T02:55:09;0.50;;;0.50;;
2896;SDS011;1458;49.728;9.228;2024-03-02T02:57:40;0.50;;;0.50;;
2896;SDS011;1458;49.728;9.228;2024-03-02T03:00:10;0.60;;;0.60;;
2896;SDS011;1458;49.728;9.228;2024-03-02T03:02:40;0.50;;;0.50;;
2896;SDS011;1458;49.728;9.228;2024-03-02T03:05:09;0.50;;;0.50;;
2896;SDS011;1458;49.728;9.228;2024-03-02T03:07:37;0.50;;;0.50;;
2896;SDS011;1458;49.728;9.228;2024-03-02T03:10:06;0.50;;;0.50;;
2896;SDS011;1458;49.728;9.228;2024-03-02T03:12:35;0.50;;;0.50;;
2896;SDS011;1458;49.728;9.228;2024-03-02T03:15:04;0.50;;;0.50;;
2896;SDS011;1458;49.728;9.228;2024-03-02T03:17:33;0.50;;;0.50;;
2896;SDS011;1458;49.728;9.228;2024-03-02T03:20:02;0.60;;;0.60;;
2896;SDS011;1458;49.728;9.228;2024-03-02T03:22:34;0.50;;;0.50;;
2896;SDS011;1458;49.728;9.228;2024-03-02T03:25:02;0.50;;;0.50;;
2896;SDS011;1458;49.728;9.228;2024-03-02T03:27:30;0.40;;;0.40;;
2896;SDS011;1458;49.728;9.228;2024-03-02T03:29:57;0.50;;;0.50;;
2896;SDS011;1458;49.728;9.228;2024-03-02T03:32:26;0.50;;;0.50;;
2896;SDS011;1458;49.728;9.228;2024-03-02T03:34:54;0.50;;;0.50;;
2896;SDS011;1458;49.728;9.228;2024-03-02T03:37:21;0.47;;;0.47;;
2896;SDS011;1458;49.728;9.228;2024-03-02T03:39:49;0.50;;;0.50;;
2896;SDS011;1458;49.728;9.228;2024-03-02T03:42:16;0.50;;;0.50;;
2896;SDS011;1458;49.728;9.228;2024-03-02T03:44:44;0.50;;;0.50;;
2896;SDS011;1458;49.728;9.228;2024-03-02T03:47:11;0.40;;;0.40;;
2896;SDS011;1458;49.728;9.228;2024-03-02T03:49:40;0.50;;;0.50;;
2896;SDS011;1458;49.728;9.228;2024-03-02T03:52:07;0.50;;;0.50;;
2896;SDS011;1458;49.728;9.228;2024-03-02T03:54:34;0.40;;;0.40;;
2896;SDS011;1458;49.728;9.228;2024-03-02T03:57:03;0.50;;;0.50;;
2896;SDS011;1458;49.728;9.228;2024-03-02T03:59:31;0.53;;;0.53;;
2896;SDS011;1458;49.728;9.228;2024-03-02T04:01:59;0.40;;;0.40;;
2896;SDS011;1458;49.728;9.228;2024-03-02T04:04:27;0.40;;;0.40;;
2896;SDS011;1458;49.728;9.228;2024-03-02T04:06:56;0.40;;;0.40;;
2896;SDS011;1458;49.728;9.228;2024-03-02T04:09:24;0.50;;;0.50;;
2896;SDS011;1458;49.728;9.228;2024-03-02T04:11:52;0.50;;;0.50;;
2896;SDS011;1458;49.728;9.228;2024-03-02T04:14:19;0.50;;;0.50;;
2896;SDS011;1458;49.728;9.228;2024-03-02T04:16:46;0.60;;;0.60;;
2896;SDS011;1458;49.728;9.228;2024-03-02T04:19:14;0.60;;;0.60;;
2896;SDS011;1458;49.728;9.228;2024-03-02T04:21:41;0.50;;;0.50;;
2896;SDS011;1458;49.728;9.228;2024-03-02T04:24:10;0.50;;;0.50;;
2896;SDS011;1458;49.728;9.228;2024-03-02T04:26:37;0.60;;;0.60;;
2896;SDS011;1458;49.728;9.228;2024-03-02T04:29:05;0.60;;;0.60;;
2896;SDS011;1458;49.728;9.228;2024-03-02T04:31:33;0.50;;;0.50;;
2896;SDS011;1458;49.728;9.228;2024-03-02T04:34:00;0.50;;;0.50;;
2896;SDS011;1458;49.728;9.228;2024-03-02T04:36:27;0.50;;;0.50;;
2896;SDS011;1458;49.728;9.228;2024-03-02T04:38:55;0.50;;;0.50;;
2896;SDS011;1458;49.728;9.228;2024-03-02T04:41:23;0.50;;;0.50;;
2896;SDS011;1458;49.728;9.228;2024-03-02T04:43:51;0.47;;;0.47;;
2896;SDS011;1458;49.728;9.228;2024-03-02T04:46:18;0.53;;;0.53;;
2896;SDS011;1458;49.728;9.228;2024-03-02T04:48:46;0.50;;;0.50;;
2896;SDS011;1458;49.728;9.228;2024-03-02T04:51:13;0.50;;;0.50;;
2896;SDS011;1458;49.728;9.228;2024-03-02T04:53:41;0.50;;;0.50;;
2896;SDS011;1458;49.728;9.228;2024-03-02T04:56:08;0.50;;;0.50;;
2896;SDS011;1458;49.728;9.228;2024-03-02T04:59:03;0.50;;;0.50;;
2896;SDS011;1458;49.728;9.228;2024-03-02T05:01:30;0.50;;;0.50;;
2896;SDS011;1458;49.728;9.228;2024-03-02T05:03:57;0.53;;;0.53;;
2896;SDS011;1458;49.728;9.228;2024-03-02T05:06:25;0.50;;;0.50;;
2896;SDS011;1458;49.728;9.228;2024-03-02T05:08:52;0.50;;;0.50;;
2896;SDS011;1458;49.728;9.228;2024-03-02T05:11:20;0.60;;;0.60;;
2896;SDS011;1458;49.728;9.228;2024-03-02T05:14:19;0.50;;;0.50;;
2896;SDS011;1458;49.728;9.228;2024-03-02T05:16:46;0.50;;;0.50;;
2896;SDS011;1458;49.728;9.228;2024-03-02T05:19:13;0.60;;;0.60;;
2896;SDS011;1458;49.728;9.228;2024-03-02T05:21:41;0.50;;;0.50;;
2896;SDS011;1458;49.728;9.228;2024-03-02T05:24:08;0.50;;;0.50;;
2896;SDS011;1458;49.728;9.228;2024-03-02T05:26:36;0.60;;;0.60;;
2896;SDS011;1458;49.728;9.228;2024-03-02T05:29:03;0.57;;;0.57;;
2896;SDS011;1458;49.728;9.228;2024-03-02T05:31:33;0.50;;;0.50;;
2896;SDS011;1458;49.728;9.228;2024-03-02T05:34:00;0.50;;;0.50;;
2896;SDS011;1458;49.728;9.228;2024-03-02T05:36:28;0.50;;;0.50;;
2896;SDS011;1458;49.728;9.228;2024-03-02T05:38:55;0.40;;;0.40;;
2896;SDS011;1458;49.728;9.228;2024-03-02T05:41:22;0.40;;;0.40;;
2896;SDS011;1458;49.728;9.228;2024-03-02T05:43:50;0.60;;;0.60;;
2896;SDS011;1458;49.728;9.228;2024-03-02T05:46:17;0.40;;;0.40;;
2896;SDS011;1458;49.728;9.228;2024-03-02T05:48:46;0.50;;;0.50;;
2896;SDS011;1458;49.728;9.228;2024-03-02T05:51:13;0.50;;;0.50;;
2896;SDS011;1458;49.728;9.228;2024-03-02T05:53:41;0.47;;;0.47;;
2896;SDS011;1458;49.728;9.228;2024-03-02T05:56:08;0.50;;;0.50;;
2896;SDS011;1458;49.728;9.228;2024-03-02T05:58:37;0.50;;;0.50;;
2896;SDS011;1458;49.728;9.228;2024-03-02T06:01:18;0.50;;;0.50;;
2896;SDS011;1458;49.728;9.228;2024-03-02T06:03:49;0.50;;;0.50;;
2896;SDS011;1458;49.728;9.228;2024-03-02T06:06:16;0.47;;;0.47;;
2896;SDS011;1458;49.728;9.228;2024-03-02T06:08:44;0.50;;;0.50;;
2896;SDS011;1458;49.728;9.228;2024-03-02T06:11:11;0.50;;;0.50;;
2896;SDS011;1458;49.728;9.228;2024-03-02T06:13:38;0.57;;;0.57;;
2896;SDS011;1458;49.728;9.228;2024-03-02T06:16:06;0.50;;;0.50;;
2896;SDS011;1458;49.728;9.228;2024-03-02T06:18:34;0.50;;;0.50;;
2896;SDS011;1458;49.728;9.228;2024-03-02T06:21:03;0.50;;;0.50;;
2896;SDS011;1458;49.728;9.228;2024-03-02T06:23:31;0.50;;;0.50;;
2896;SDS011;1458;49.728;9.228;2024-03-02T06:25:58;0.50;;;0.50;;
2896;SDS011;1458;49.728;9.228;2024-03-02T06:28:25;0.50;;;0.50;;
2896;SDS011;1458;49.728;9.228;2024-03-02T06:30:53;0.50;;;0.50;;
2896;SDS011;1458;49.728;9.228;2024-03-02T06:33:20;0.50;;;0.50;;
2896;SDS011;1458;49.728;9.228;2024-03-02T06:35:48;0.50;;;0.50;;
2896;SDS011;1458;49.728;9.228;2024-03-02T06:38:17;0.50;;;0.50;;
2896;SDS011;1458;49.728;9.228;2024-03-02T06:40:44;0.50;;;0.50;;
2896;SDS011;1458;49.728;9.228;2024-03-02T06:43:11;0.50;;;0.50;;
2896;SDS011;1458;49.728;9.228;2024-03-02T06:45:39;0.50;;;0.50;;
2896;SDS011;1458;49.728;9.228;2024-03-02T06:48:07;0.50;;;0.50;;
2896;SDS011;1458;49.728;9.228;2024-03-02T06:50:34;0.40;;;0.40;;
2896;SDS011;1458;49.728;9.228;2024-03-02T06:53:02;0.40;;;0.40;;
2896;SDS011;1458;49.728;9.228;2024-03-02T06:55:31;0.60;;;0.60;;
2896;SDS011;1458;49.728;9.228;2024-03-02T06:57:58;0.40;;;0.40;;
2896;SDS011;1458;49.728;9.228;2024-03-02T07:00:26;0.50;;;0.50;;
2896;SDS011;1458;49.728;9.228;2024-03-02T07:02:54;0.50;;;0.50;;
2896;SDS011;1458;49.728;9.228;2024-03-02T07:05:21;0.40;;;0.40;;
2896;SDS011;1458;49.728;9.228;2024-03-02T07:07:49;0.50;;;0.50;;
2896;SDS011;1458;49.728;9.228;2024-03-02T07:10:16;0.40;;;0.40;;
2896;SDS011;1458;49.728;9.228;2024-03-02T07:12:45;0.50;;;0.50;;
2896;SDS011;1458;49.728;9.228;2024-03-02T07:15:13;0.40;;;0.40;;
2896;SDS011;1458;49.728;9.228;2024-03-02T07:18:09;0.40;;;0.40;;
2896;SDS011;1458;49.728;9.228;2024-03-02T07:20:37;0.47;;;0.47;;
2896;SDS011;1458;49.728;9.228;2024-03-02T07:23:04;0.40;;;0.40;;
2896;SDS011;1458;49.728;9.228;2024-03-02T07:25:32;0.50;;;0.50;;
2896;SDS011;1458;49.728;9.228;2024-03-02T07:28:01;0.47;;;0.47;;
2896;SDS011;1458;49.728;9.228;2024-03-02T07:30:29;0.40;;;0.40;;
2896;SDS011;1458;49.728;9.228;2024-03-02T07:32:57;0.50;;;0.50;;
2896;SDS011;1458;49.728;9.228;2024-03-02T07:35:24;0.50;;;0.50;;
2896;SDS011;1458;49.728;9.228;2024-03-02T07:37:52;0.40;;;0.40;;
2896;SDS011;1458;49.728;9.228;2024-03-02T07:40:20;0.40;;;0.40;;
2896;SDS011;1458;49.728;9.228;2024-03-02T07:42:48;0.40;;;0.40;;
2896;SDS011;1458;49.728;9.228;2024-03-02T07:45:17;0.40;;;0.40;;
2896;SDS011;1458;49.728;9.228;2024-03-02T07:47:44;0.43;;;0.43;;
2896;SDS011;1458;49.728;9.228;2024-03-02T07:50:12;0.40;;;0.40;;
2896;SDS011;1458;49.728;9.228;2024-03-02T07:52:40;0.40;;;0.40;;
2896;SDS011;1458;49.728;9.228;2024-03-02T07:55:07;0.43;;;0.43;;
2896;SDS011;1458;49.728;9.228;2024-03-02T07:57:35;0.40;;;0.40;;
2896;SDS011;1458;49.728;9.228;2024-03-02T08:00:02;0.40;;;0.40;;
2896;SDS011;1458;49.728;9.228;2024-03-02T08:02:38;0.50;;;0.50;;
2896;SDS011;1458;49.728;9.228;2024-03-02T08:05:07;0.40;;;0.40;;
2896;SDS011;1458;49.728;9.228;2024-03-02T08:07:35;0.60;;;0.60;;
2896;SDS011;1458;49.728;9.228;2024-03-02T08:10:03;0.43;;;0.43;;
2896;SDS011;1458;49.728;9.228;2024-03-02T08:12:32;0.50;;;0.50;;
2896;SDS011;1458;49.728;9.228;2024-03-02T08:14:59;0.40;;;0.40;;
2896;SDS011;1458;49.728;9.228;2024-03-02T08:17:27;0.43;;;0.43;;
2896;SDS011;1458;49.728;9.228;2024-03-02T08:19:55;0.50;;;0.50;;
2896;SDS011;1458;49.728;9.228;2024-03-02T08:22:24;0.40;;;0.40;;
2896;SDS011;1458;49.728;9.228;2024-03-02T08:24:51;0.40;;;0.40;;
2896;SDS011;1458;49.728;9.228;2024-03-02T08:27:19;0.40;;;0.40;;
2896;SDS011;1458;49.728;9.228;2024-03-02T08:29:47;0.53;;;0.53;;
2896;SDS011;1458;49.728;9.228;2024-03-02T08:32:14;0.50;;;0.50;;
2896;SDS011;1458;49.728;9.228;2024-03-02T08:34:43;0.40;;;0.40;;
2896;SDS011;1458;49.728;9.228;2024-03-02T08:37:11;0.47;;;0.47;;
2896;SDS011;1458;49.728;9.228;2024-03-02T08:39:39;0.40;;;0.40;;
2896;SDS011;1458;49.728;9.228;2024-03-02T08:42:06;0.50;;;0.50;;
2896;SDS011;1458;49.728;9.228;2024-03-02T08:44:34;0.40;;;0.40;;
2896;SDS011;1458;49.728;9.228;2024-03-02T08:47:01;0.43;;;0.43;;
2896;SDS011;1458;49.728;9.228;2024-03-02T08:49:29;0.40;;;0.40;;
2896;SDS011;1458;49.728;9.228;2024-03-02T08:51:57;0.43;;;0.43;;
2896;SDS011;1458;49.728;9.228;2024-03-02T08:54:25;0.50;;;0.50;;
2896;SDS011;1458;49.728;9.228;2024-03-02T08:56:53;0.40;;;0.40;;
2896;SDS011;1458;49.728;9.228;2024-03-02T08:59:20;0.47;;;0.47;;
2896;SDS011;1458;49.728;9.228;2024-03-02T09:01:48;0.40;;;0.40;;
2896;SDS011;1458;49.728;9.228;2024-03-02T09:04:15;0.57;;;0.57;;
2896;SDS011;1458;49.728;9.228;2024-03-02T09:06:43;0.43;;;0.43;;
2896;SDS011;1458;49.728;9.228;2024-03-02T09:09:10;0.40;;;0.40;;
2896;SDS011;1458;49.728;9.228;2024-03-02T09:11:39;0.60;;;0.60;;
2896;SDS011;1458;49.728;9.228;2024-03-02T09:14:06;0.40;;;0.40;;
2896;SDS011;1458;49.728;9.228;2024-03-02T09:16:35;0.50;;;0.50;;
2896;SDS011;1458;49.728;9.228;2024-03-02T09:19:03;0.40;;;0.40;;
2896;SDS011;1458;49.728;9.228;2024-03-02T09:21:30;0.50;;;0.50;;
2896;SDS011;1458;49.728;9.228;2024-03-02T09:23:58;0.40;;;0.40;;
2896;SDS011;1458;49.728;9.228;2024-03-02T09:26:25;0.40;;;0.40;;
2896;SDS011;1458;49.728;9.228;2024-03-02T09:28:54;0.40;;;0.40;;
2896;SDS011;1458;49.728;9.228;2024-03-02T09:31:21;0.50;;;0.50;;
2896;SDS011;1458;49.728;9.228;2024-03-02T09:33:49;0.60;;;0.60;;
2896;SDS011;1458;49.728;9.228;2024-03-02T09:36:16;0.40;;;0.40;;
2896;SDS011;1458;49.728;9.228;2024-03-02T09:38:44;0.40;;;0.40;;
2896;SDS011;1458;49.728;9.228;2024-03-02T09:41:12;0.60;;;0.60;;
2896;SDS011;1458;49.728;9.228;2024-03-02T09:43:40;0.40;;;0.40;;
2896;SDS011;1458;49.728;9.228;2024-03-02T09:46:09;0.40;;;0.40;;
2896;SDS011;1458;49.728;9.228;2024-03-02T09:48:37;0.50;;;0.50;;
2896;SDS011;1458;49.728;9.228;2024-03-02T09:51:05;0.40;;;0.40;;
2896;SDS011;1458;49.728;9.228;2024-03-02T09:53:33;0.40;;;0.40;;
2896;SDS011;1458;49.728;9.228;2024-03-02T09:56:00;0.40;;;0.40;;
2896;SDS011;1458;49.728;9.228;2024-03-02T09:58:28;0.40;;;0.40;;
2896;SDS011;1458;49.728;9.228;2024-03-02T10:00:56;0.40;;;0.40;;
2896;SDS011;1458;49.728;9.228;2024-03-02T10:03:24;0.50;;;0.50;;
2896;SDS011;1458;49.728;9.228;2024-03-02T10:05:53;0.40;;;0.40;;
2896;SDS011;1458;49.728;9.228;2024-03-02T10:08:20;0.50;;;0.50;;
2896;SDS011;1458;49.728;9.228;2024-03-02T10:10:48;0.60;;;0.60;;
2896;SDS011;1458;49.728;9.228;2024-03-02T10:13:15;0.40;;;0.40;;
2896;SDS011;1458;49.728;9.228;2024-03-02T10:15:43;0.50;;;0.50;;
2896;SDS011;1458;49.728;9.228;2024-03-02T10:18:12;0.60;;;0.60;;
2896;SDS011;1458;49.728;9.228;2024-03-02T10:20:43;0.50;;;0.50;;
2896;SDS011;1458;49.728;9.228;2024-03-02T10:23:11;0.60;;;0.60;;
2896;SDS011;1458;49.728;9.228;2024-03-02T10:25:40;0.50;;;0.50;;
2896;SDS011;1458;49.728;9.228;2024-03-02T10:28:09;0.60;;;0.60;;
2896;SDS011;1458;49.728;9.228;2024-03-02T10:30:36;0.70;;;0.70;;
2896;SDS011;1458;49.728;9.228;2024-03-02T10:33:05;0.70;;;0.70;;
2896;SDS011;1458;49.728;9.228;2024-03-02T10:35:33;0.70;;;0.70;;
2896;SDS011;1458;49.728;9.228;2024-03-02T10:38:04;0.77;;;0.77;;
2896;SDS011;1458;49.728;9.228;2024-03-02T10:40:32;0.80;;;0.80;;
2896;SDS011;1458;49.728;9.228;2024-03-02T10:43:00;0.80;;;0.80;;
2896;SDS011;1458;49.728;9.228;2024-03-02T10:45:30;1.10;;;1.10;;
2896;SDS011;1458;49.728;9.228;2024-03-02T10:47:58;1.07;;;1.07;;
2896;SDS011;1458;49.728;9.228;2024-03-02T10:50:30;1.33;;;1.33;;
2896;SDS011;1458;49.728;9.228;2024-03-02T10:52:58;1.30;;;1.30;;
2896;SDS011;1458;49.728;9.228;2024-03-02T10:55:27;1.60;;;1.60;;
2896;SDS011;1458;49.728;9.228;2024-03-02T10:57:54;1.50;;;1.50;;
2896;SDS011;1458;49.728;9.228;2024-03-02T11:00:23;1.57;;;1.57;;
2896;SDS011;1458;49.728;9.228;2024-03-02T11:02:55;1.80;;;1.80;;
2896;SDS011;1458;49.728;9.228;2024-03-02T11:05:26;2.10;;;2.10;;
2896;SDS011;1458;49.728;9.228;2024-03-02T11:07:57;2.20;;;2.20;;
2896;SDS011;1458;49.728;9.228;2024-03-02T11:10:34;2.40;;;2.40;;
2896;SDS011;1458;49.728;9.228;2024-03-02T11:13:05;2.33;;;2.33;;
2896;SDS011;1458;49.728;9.228;2024-03-02T11:15:35;2.33;;;2.33;;
2896;SDS011;1458;49.728;9.228;2024-03-02T11:18:04;2.53;;;2.53;;
2896;SDS011;1458;49.728;9.228;2024-03-02T11:20:34;2.43;;;2.43;;
2896;SDS011;1458;49.728;9.228;2024-03-02T11:23:06;2.73;;;2.73;;
2896;SDS011;1458;49.728;9.228;2024-03-02T11:25:36;2.90;;;2.90;;
2896;SDS011;1458;49.728;9.228;2024-03-02T11:28:05;2.77;;;2.77;;
2896;SDS011;1458;49.728;9.228;2024-03-02T11:30:50;2.90;;;2.90;;
2896;SDS011;1458;49.728;9.228;2024-03-02T11:33:24;3.10;;;3.10;;
2896;SDS011;1458;49.728;9.228;2024-03-02T11:35:54;3.27;;;3.27;;
2896;SDS011;1458;49.728;9.228;2024-03-02T11:38:27;3.10;;;3.10;;
2896;SDS011;1458;49.728;9.228;2024-03-02T11:40:58;3.70;;;3.70;;
2896;SDS011;1458;49.728;9.228;2024-03-02T11:43:27;3.57;;;3.57;;
2896;SDS011;1458;49.728;9.228;2024-03-02T11:45:59;3.50;;;3.50;;
2896;SDS011;1458;49.728;9.228;2024-03-02T11:48:29;3.80;;;3.80;;
2896;SDS011;1458;49.728;9.228;2024-03-02T11:50:58;4.30;;;4.30;;
2896;SDS011;1458;49.728;9.228;2024-03-02T11:53:27;4.07;;;4.07;;
2896;SDS011;1458;49.728;9.228;2024-03-02T11:55:55;3.90;;;3.90;;
2896;SDS011;1458;49.728;9.228;2024-03-02T11:58:26;4.50;;;4.50;;
2896;SDS011;1458;49.728;9.228;2024-03-02T12:00:54;4.73;;;4.73;;
2896;SDS011;1458;49.728;9.228;2024-03-02T12:03:23;5.00;;;5.00;;
2896;SDS011;1458;49.728;9.228;2024-03-02T12:05:53;4.90;;;4.90;;
2896;SDS011;1458;49.728;9.228;2024-03-02T12:08:21;5.10;;;5.10;;
2896;SDS011;1458;49.728;9.228;2024-03-02T12:10:56;5.50;;;5.50;;
2896;SDS011;1458;49.728;9.228;2024-03-02T12:13:25;4.93;;;4.93;;
2896;SDS011;1458;49.728;9.228;2024-03-02T12:15:53;5.77;;;5.77;;
2896;SDS011;1458;49.728;9.228;2024-03-02T12:18:22;5.70;;;5.70;;
2896;SDS011;1458;49.728;9.228;2024-03-02T12:20:49;5.70;;;5.70;;
2896;SDS011;1458;49.728;9.228;2024-03-02T12:23:21;6.00;;;6.00;;
2896;SDS011;1458;49.728;9.228;2024-03-02T12:25:49;5.90;;;5.90;;
2896;SDS011;1458;49.728;9.228;2024-03-02T12:28:18;6.00;;;6.00;;
2896;SDS011;1458;49.728;9.228;2024-03-02T12:30:46;6.60;;;6.50;;
2896;SDS011;1458;49.728;9.228;2024-03-02T12:33:14;6.13;;;6.13;;
2896;SDS011;1458;49.728;9.228;2024-03-02T12:35:41;6.10;;;6.10;;
2896;SDS011;1458;49.728;9.228;2024-03-02T12:38:09;6.70;;;6.60;;
2896;SDS011;1458;49.728;9.228;2024-03-02T12:40:37;6.83;;;6.73;;
2896;SDS011;1458;49.728;9.228;2024-03-02T12:43:05;7.50;;;7.40;;
2896;SDS011;1458;49.728;9.228;2024-03-02T12:45:34;7.30;;;7.20;;
2896;SDS011;1458;49.728;9.228;2024-03-02T12:48:03;7.30;;;7.20;;
2896;SDS011;1458;49.728;9.228;2024-03-02T12:50:32;7.10;;;7.00;;
2896;SDS011;1458;49.728;9.228;2024-03-02T12:53:00;7.27;;;7.17;;
2896;SDS011;1458;49.728;9.228;2024-03-02T12:55:28;7.90;;;7.80;;
2896;SDS011;1458;49.728;9.228;2024-03-02T12:57:55;7.90;;;7.80;;
2896;SDS011;1458;49.728;9.228;2024-03-02T13:00:24;8.10;;;8.00;;
2896;SDS011;1458;49.728;9.228;2024-03-02T13:02:53;8.77;;;8.63;;
2896;SDS011;1458;49.728;9.228;2024-03-02T13:05:29;8.60;;;8.50;;
2896;SDS011;1458;49.728;9.228;2024-03-02T13:07:58;8.50;;;8.40;;
2896;SDS011;1458;49.728;9.228;2024-03-02T13:10:26;8.60;;;8.50;;
2896;SDS011;1458;49.728;9.228;2024-03-02T13:12:54;9.27;;;9.07;;
2896;SDS011;1458;49.728;9.228;2024-03-02T13:15:22;8.63;;;8.53;;
2896;SDS011;1458;49.728;9.228;2024-03-02T13:17:50;8.77;;;8.63;;
2896;SDS011;1458;49.728;9.228;2024-03-02T13:20:19;9.00;;;8.80;;
2896;SDS011;1458;49.728;9.228;2024-03-02T13:22:46;8.50;;;8.40;;
2896;SDS011;1458;49.728;9.228;2024-03-02T13:25:14;8.20;;;8.10;;
2896;SDS011;1458;49.728;9.228;2024-03-02T13:27:41;8.40;;;8.30;;
2896;SDS011;1458;49.728;9.228;2024-03-02T13:30:09;8.30;;;8.20;;
2896;SDS011;1458;49.728;9.228;2024-03-02T13:32:37;8.23;;;8.13;;
2896;SDS011;1458;49.728;9.228;2024-03-02T13:35:05;8.10;;;8.00;;
2896;SDS011;1458;49.728;9.228;2024-03-02T13:37:35;8.37;;;8.27;;
2896;SDS011;1458;49.728;9.228;2024-03-02T13:40:02;8.30;;;8.20;;
2896;SDS011;1458;49.728;9.228;2024-03-02T13:42:31;8.30;;;8.20;;
2896;SDS011;1458;49.728;9.228;2024-03-02T13:44:59;8.63;;;8.53;;
2896;SDS011;1458;49.728;9.228;2024-03-02T13:47:26;8.73;;;8.60;;
2896;SDS011;1458;49.728;9.228;2024-03-02T13:49:54;8.30;;;8.20;;
2896;SDS011;1458;49.728;9.228;2024-03-02T13:52:21;8.57;;;8.47;;
2896;SDS011;1458;49.728;9.228;2024-03-02T13:54:52;8.70;;;8.60;;
2896;SDS011;1458;49.728;9.228;2024-03-02T13:57:19;9.00;;;8.80;;
2896;SDS011;1458;49.728;9.228;2024-03-02T13:59:47;9.20;;;9.00;;
2896;SDS011;1458;49.728;9.228;2024-03-02T14:02:15;10.03;;;9.83;;
2896;SDS011;1458;49.728;9.228;2024-03-02T14:04:43;9.30;;;9.10;;
2896;SDS011;1458;49.728;9.228;2024-03-02T14:07:11;9.20;;;9.00;;
2896;SDS011;1458;49.728;9.228;2024-03-02T14:09:38;9.20;;;9.00;;
2896;SDS011;1458;49.728;9.228;2024-03-02T14:12:07;10.07;;;9.87;;
2896;SDS011;1458;49.728;9.228;2024-03-02T14:14:38;9.60;;;9.40;;
2896;SDS011;1458;49.728;9.228;2024-03-02T14:17:06;10.10;;;9.90;;
2896;SDS011;1458;49.728;9.228;2024-03-02T14:19:39;9.97;;;9.77;;
2896;SDS011;1458;49.728;9.228;2024-03-02T14:22:07;10.00;;;9.80;;
2896;SDS011;1458;49.728;9.228;2024-03-02T14:24:34;10.27;;;10.07;;
2896;SDS011;1458;49.728;9.228;2024-03-02T14:27:02;11.37;;;11.07;;
2896;SDS011;1458;49.728;9.228;2024-03-02T14:29:31;10.73;;;10.50;;
2896;SDS011;1458;49.728;9.228;2024-03-02T14:32:01;11.17;;;10.87;;
2896;SDS011;1458;49.728;9.228;2024-03-02T14:34:29;10.90;;;10.60;;
2896;SDS011;1458;49.728;9.228;2024-03-02T14:36:56;11.10;;;10.80;;
2896;SDS011;1458;49.728;9.228;2024-03-02T14:39:24;10.50;;;10.30;;
2896;SDS011;1458;49.728;9.228;2024-03-02T14:41:52;10.93;;;10.63;;
2896;SDS011;1458;49.728;9.228;2024-03-02T14:44:21;10.97;;;10.67;;
2896;SDS011;1458;49.728;9.228;2024-03-02T14:46:49;11.57;;;11.27;;
2896;SDS011;1458;49.728;9.228;2024-03-02T14:49:17;11.20;;;10.90;;
2896;SDS011;1458;49.728;9.228;2024-03-02T14:51:44;11.30;;;11.00;;
2896;SDS011;1458;49.728;9.228;2024-03-02T14:54:14;11.57;;;11.27;;
2896;SDS011;1458;49.728;9.228;2024-03-02T14:56:42;11.50;;;11.20;;
2896;SDS011;1458;49.728;9.228;2024-03-02T14:59:10;11.53;;;11.23;;
2896;SDS011;1458;49.728;9.228;2024-03-02T15:01:38;11.80;;;11.50;;
2896;SDS011;1458;49.728;9.228;2024-03-02T15:04:07;12.60;;;12.20;;
2896;SDS011;1458;49.728;9.228;2024-03-02T15:06:35;12.20;;;11.90;;
2896;SDS011;1458;49.728;9.228;2024-03-02T15:09:02;12.50;;;12.10;;
2896;SDS011;1458;49.728;9.228;2024-03-02T15:11:30;13.00;;;12.60;;
2896;SDS011;1458;49.728;9.228;2024-03-02T15:13:58;13.10;;;12.70;;
2896;SDS011;1458;49.728;9.228;2024-03-02T15:16:25;12.80;;;12.40;;
2896;SDS011;1458;49.728;9.228;2024-03-02T15:18:53;13.10;;;12.70;;
2896;SDS011;1458;49.728;9.228;2024-03-02T15:21:22;13.10;;;12.70;;
2896;SDS011;1458;49.728;9.228;2024-03-02T15:23:49;13.50;;;13.10;;
2896;SDS011;1458;49.728;9.228;2024-03-02T15:26:17;13.10;;;12.70;;